Garden City Regional Airport Garden City US
ICAO: KGCK
IATA: GCK
Category: Medium
Scheduled Services: Yes

Elevation: 2891 ft
TransAlt. 18000 ft.

Airport Communications:
ASOS:121.325
KANSAS CITY CNTR:125.2
CTAF:118.15
GND:119
WICHITA RDO:122.45
TWR:118.15
UNICOM:122.95

KGCK Zoom In..

Runways:

(A) RW 12 length 5700 ft width 100 ft
---- / hdg 126

(B) RW 17 length 7299 ft width 100 ft
---- / hdg 171

(C) RW 30 length 5700 ft width 100 ft
---- / hdg 306

(D) RW 35 length 7299 ft width 100 ft
ILS 109.90 / hdg 351

Location; KGCK
Day. 24 / Time. 01.54 Zulu
* Altimeter: 30.32
* Temperature: -02° c. -28.4°f.
* Wind from: 340° Speed 08 kn.
Dewpoint: -08° c.
Visibility: 10 Statute Miles.
Clouds: Clear (automated report).

KGCK 240154Z 34008KT 10SM CLR M02/M08 A3032 RMK AO2 SLP301 T10221078


Wind From 340°
Speed 08 kn.

YouTube Music Video
 
jpsmedia.com for Web Design  worldairports.se 2018   terms of use